Homer, Pennsylvania
Current Conditions -  °F | °C
As of 10:56 AM on Saturday 20 Dec 2014 (Local Time) from KELZ Reporting Station
Overcast Overcast  
Wind Chill: 23°   Ceiling: 1100
Heat Index: 23°   Visibility: 10mi
Dew Point: 18°   Wind: 3mph
Humidity: 81%   Direction: NA
Pressure: 30.22"   Gusts: NA
Location:  41.7605°N, 77.9728°W
Report Text: KELZ 201556Z AUTO VRB03KT 10SM OVC011 M05/M08 A3022 RMK AO2 SLP265 T10501078
Loading
Personal Weather Stations






























Interactive Weather Map New forecast layout! Learn more

10-Day Weather Forecast

Advertisements
Track Severe Weather on mobile